sensor_id;sensor_type;location;lat;lon;timestamp;P1;durP1;ratioP1;P2;durP2;ratioP2
33287;SDS011;19657;50.452;30.372;2023-06-10T00:01:38;11.40;;;6.70;;
33287;SDS011;19657;50.452;30.372;2023-06-10T00:04:24;10.60;;;6.40;;
33287;SDS011;19657;50.452;30.372;2023-06-10T00:07:10;15.20;;;6.40;;
33287;SDS011;19657;50.452;30.372;2023-06-10T00:09:56;9.30;;;6.70;;
33287;SDS011;19657;50.452;30.372;2023-06-10T00:12:43;12.60;;;6.50;;
33287;SDS011;19657;50.452;30.372;2023-06-10T00:15:29;9.60;;;6.40;;
33287;SDS011;19657;50.452;30.372;2023-06-10T00:18:15;10.80;;;6.60;;
33287;SDS011;19657;50.452;30.372;2023-06-10T00:21:02;13.60;;;6.30;;
33287;SDS011;19657;50.452;30.372;2023-06-10T00:23:51;12.70;;;6.60;;
33287;SDS011;19657;50.452;30.372;2023-06-10T00:26:40;13.40;;;6.50;;
33287;SDS011;19657;50.452;30.372;2023-06-10T00:29:27;11.10;;;6.00;;
33287;SDS011;19657;50.452;30.372;2023-06-10T00:32:13;11.00;;;6.50;;
33287;SDS011;19657;50.452;30.372;2023-06-10T00:34:59;13.80;;;6.40;;
33287;SDS011;19657;50.452;30.372;2023-06-10T00:37:45;12.20;;;6.40;;
33287;SDS011;19657;50.452;30.372;2023-06-10T00:40:33;10.50;;;6.60;;
33287;SDS011;19657;50.452;30.372;2023-06-10T00:43:24;15.10;;;6.60;;
33287;SDS011;19657;50.452;30.372;2023-06-10T00:46:11;10.40;;;7.00;;
33287;SDS011;19657;50.452;30.372;2023-06-10T00:48:57;12.00;;;7.00;;
33287;SDS011;19657;50.452;30.372;2023-06-10T00:51:44;10.80;;;7.20;;
33287;SDS011;19657;50.452;30.372;2023-06-10T00:54:29;10.30;;;7.40;;
33287;SDS011;19657;50.452;30.372;2023-06-10T00:57:16;13.10;;;7.60;;
33287;SDS011;19657;50.452;30.372;2023-06-10T01:00:02;11.40;;;6.30;;
33287;SDS011;19657;50.452;30.372;2023-06-10T01:02:52;11.40;;;7.00;;
33287;SDS011;19657;50.452;30.372;2023-06-10T01:05:39;12.00;;;6.90;;
33287;SDS011;19657;50.452;30.372;2023-06-10T01:11:43;12.10;;;8.10;;
33287;SDS011;19657;50.452;30.372;2023-06-10T01:14:38;12.00;;;6.90;;
33287;SDS011;19657;50.452;30.372;2023-06-10T01:17:24;9.10;;;7.60;;
33287;SDS011;19657;50.452;30.372;2023-06-10T01:20:13;17.60;;;8.00;;
33287;SDS011;19657;50.452;30.372;2023-06-10T01:22:59;9.70;;;6.90;;
33287;SDS011;19657;50.452;30.372;2023-06-10T01:25:52;11.40;;;8.00;;
33287;SDS011;19657;50.452;30.372;2023-06-10T01:28:49;10.60;;;7.20;;
33287;SDS011;19657;50.452;30.372;2023-06-10T01:31:54;12.30;;;8.00;;
33287;SDS011;19657;50.452;30.372;2023-06-10T01:34:43;13.00;;;8.10;;
33287;SDS011;19657;50.452;30.372;2023-06-10T01:37:31;11.80;;;8.30;;
33287;SDS011;19657;50.452;30.372;2023-06-10T01:40:19;13.80;;;8.00;;
33287;SDS011;19657;50.452;30.372;2023-06-10T01:43:05;15.20;;;9.00;;
33287;SDS011;19657;50.452;30.372;2023-06-10T01:45:51;17.80;;;8.30;;
33287;SDS011;19657;50.452;30.372;2023-06-10T01:48:38;11.50;;;8.30;;
33287;SDS011;19657;50.452;30.372;2023-06-10T01:51:24;14.70;;;8.60;;
33287;SDS011;19657;50.452;30.372;2023-06-10T01:54:11;17.60;;;8.20;;
33287;SDS011;19657;50.452;30.372;2023-06-10T01:56:57;15.20;;;8.80;;
33287;SDS011;19657;50.452;30.372;2023-06-10T01:59:43;26.30;;;8.20;;
33287;SDS011;19657;50.452;30.372;2023-06-10T02:02:30;10.70;;;8.30;;
33287;SDS011;19657;50.452;30.372;2023-06-10T02:05:17;12.90;;;8.40;;
33287;SDS011;19657;50.452;30.372;2023-06-10T02:08:04;13.30;;;8.30;;
33287;SDS011;19657;50.452;30.372;2023-06-10T02:10:50;14.40;;;8.00;;
33287;SDS011;19657;50.452;30.372;2023-06-10T02:13:37;12.10;;;8.40;;
33287;SDS011;19657;50.452;30.372;2023-06-10T02:16:23;13.20;;;7.10;;
33287;SDS011;19657;50.452;30.372;2023-06-10T02:19:09;12.60;;;7.60;;
33287;SDS011;19657;50.452;30.372;2023-06-10T02:21:56;13.40;;;7.90;;
33287;SDS011;19657;50.452;30.372;2023-06-10T02:24:42;13.00;;;7.70;;
33287;SDS011;19657;50.452;30.372;2023-06-10T02:27:28;11.70;;;7.20;;
33287;SDS011;19657;50.452;30.372;2023-06-10T02:30:14;13.50;;;6.90;;
33287;SDS011;19657;50.452;30.372;2023-06-10T02:33:01;9.30;;;7.00;;
33287;SDS011;19657;50.452;30.372;2023-06-10T02:35:47;12.80;;;6.70;;
33287;SDS011;19657;50.452;30.372;2023-06-10T02:38:33;10.70;;;6.50;;
33287;SDS011;19657;50.452;30.372;2023-06-10T02:41:20;16.50;;;7.30;;
33287;SDS011;19657;50.452;30.372;2023-06-10T02:44:08;10.80;;;7.30;;
33287;SDS011;19657;50.452;30.372;2023-06-10T02:46:54;10.60;;;7.30;;
33287;SDS011;19657;50.452;30.372;2023-06-10T02:49:40;12.80;;;7.60;;
33287;SDS011;19657;50.452;30.372;2023-06-10T02:52:27;12.70;;;7.20;;
33287;SDS011;19657;50.452;30.372;2023-06-10T02:55:14;11.80;;;7.50;;
33287;SDS011;19657;50.452;30.372;2023-06-10T02:58:03;14.70;;;8.00;;
33287;SDS011;19657;50.452;30.372;2023-06-10T03:00:49;13.20;;;7.60;;
33287;SDS011;19657;50.452;30.372;2023-06-10T03:03:36;12.50;;;7.00;;
33287;SDS011;19657;50.452;30.372;2023-06-10T03:06:29;11.30;;;7.60;;
33287;SDS011;19657;50.452;30.372;2023-06-10T03:09:23;16.10;;;7.70;;
33287;SDS011;19657;50.452;30.372;2023-06-10T03:12:11;12.40;;;7.60;;
33287;SDS011;19657;50.452;30.372;2023-06-10T03:15:01;12.40;;;8.10;;
33287;SDS011;19657;50.452;30.372;2023-06-10T03:17:48;11.40;;;9.20;;
33287;SDS011;19657;50.452;30.372;2023-06-10T03:20:34;14.60;;;9.20;;
33287;SDS011;19657;50.452;30.372;2023-06-10T03:23:25;16.40;;;9.70;;
33287;SDS011;19657;50.452;30.372;2023-06-10T03:26:13;13.90;;;7.80;;
33287;SDS011;19657;50.452;30.372;2023-06-10T03:29:01;10.70;;;8.80;;
33287;SDS011;19657;50.452;30.372;2023-06-10T03:31:47;11.00;;;7.80;;
33287;SDS011;19657;50.452;30.372;2023-06-10T03:34:34;18.20;;;9.20;;
33287;SDS011;19657;50.452;30.372;2023-06-10T03:37:20;13.20;;;8.90;;
33287;SDS011;19657;50.452;30.372;2023-06-10T03:40:07;16.60;;;8.60;;
33287;SDS011;19657;50.452;30.372;2023-06-10T03:42:55;13.40;;;8.10;;
33287;SDS011;19657;50.452;30.372;2023-06-10T03:45:41;10.50;;;7.90;;
33287;SDS011;19657;50.452;30.372;2023-06-10T03:48:28;11.20;;;8.60;;
33287;SDS011;19657;50.452;30.372;2023-06-10T03:51:13;12.80;;;8.00;;
33287;SDS011;19657;50.452;30.372;2023-06-10T03:53:59;15.00;;;8.30;;
33287;SDS011;19657;50.452;30.372;2023-06-10T03:56:46;11.00;;;7.80;;
33287;SDS011;19657;50.452;30.372;2023-06-10T03:59:33;12.00;;;8.20;;
33287;SDS011;19657;50.452;30.372;2023-06-10T04:02:19;10.80;;;7.70;;
33287;SDS011;19657;50.452;30.372;2023-06-10T04:05:05;11.10;;;8.00;;
33287;SDS011;19657;50.452;30.372;2023-06-10T04:07:52;12.70;;;7.60;;
33287;SDS011;19657;50.452;30.372;2023-06-10T04:10:38;11.40;;;7.80;;
33287;SDS011;19657;50.452;30.372;2023-06-10T04:13:24;9.70;;;7.30;;
33287;SDS011;19657;50.452;30.372;2023-06-10T04:16:12;11.80;;;7.70;;
33287;SDS011;19657;50.452;30.372;2023-06-10T04:18:58;11.00;;;7.30;;
33287;SDS011;19657;50.452;30.372;2023-06-10T04:21:45;11.10;;;7.20;;
33287;SDS011;19657;50.452;30.372;2023-06-10T04:24:31;9.80;;;7.80;;
33287;SDS011;19657;50.452;30.372;2023-06-10T04:27:17;12.20;;;7.20;;
33287;SDS011;19657;50.452;30.372;2023-06-10T04:30:03;10.80;;;7.00;;
33287;SDS011;19657;50.452;30.372;2023-06-10T04:32:54;9.50;;;7.10;;
33287;SDS011;19657;50.452;30.372;2023-06-10T04:35:40;9.60;;;7.60;;
33287;SDS011;19657;50.452;30.372;2023-06-10T04:38:27;13.60;;;7.00;;
33287;SDS011;19657;50.452;30.372;2023-06-10T04:41:13;10.80;;;6.60;;
33287;SDS011;19657;50.452;30.372;2023-06-10T04:43:59;10.30;;;7.10;;
33287;SDS011;19657;50.452;30.372;2023-06-10T04:46:45;10.90;;;6.50;;
33287;SDS011;19657;50.452;30.372;2023-06-10T04:49:32;12.10;;;6.50;;
33287;SDS011;19657;50.452;30.372;2023-06-10T04:52:20;12.00;;;6.80;;
33287;SDS011;19657;50.452;30.372;2023-06-10T04:55:07;10.50;;;6.80;;
33287;SDS011;19657;50.452;30.372;2023-06-10T04:57:54;12.00;;;6.90;;
33287;SDS011;19657;50.452;30.372;2023-06-10T05:00:40;11.10;;;6.30;;
33287;SDS011;19657;50.452;30.372;2023-06-10T05:03:26;12.60;;;7.00;;
33287;SDS011;19657;50.452;30.372;2023-06-10T05:06:12;10.80;;;6.60;;
33287;SDS011;19657;50.452;30.372;2023-06-10T05:08:58;11.80;;;7.30;;
33287;SDS011;19657;50.452;30.372;2023-06-10T05:11:44;12.50;;;6.70;;
33287;SDS011;19657;50.452;30.372;2023-06-10T05:14:30;15.10;;;7.00;;
33287;SDS011;19657;50.452;30.372;2023-06-10T05:17:17;10.00;;;7.10;;
33287;SDS011;19657;50.452;30.372;2023-06-10T05:20:03;12.00;;;6.50;;
33287;SDS011;19657;50.452;30.372;2023-06-10T05:22:50;12.50;;;6.50;;
33287;SDS011;19657;50.452;30.372;2023-06-10T05:25:36;10.50;;;6.60;;
33287;SDS011;19657;50.452;30.372;2023-06-10T05:28:22;11.00;;;6.80;;
33287;SDS011;19657;50.452;30.372;2023-06-10T05:31:08;14.30;;;6.10;;
33287;SDS011;19657;50.452;30.372;2023-06-10T05:33:54;10.40;;;6.90;;
33287;SDS011;19657;50.452;30.372;2023-06-10T05:36:41;9.10;;;6.60;;
33287;SDS011;19657;50.452;30.372;2023-06-10T05:39:27;11.40;;;6.40;;
33287;SDS011;19657;50.452;30.372;2023-06-10T05:42:13;12.80;;;6.80;;
33287;SDS011;19657;50.452;30.372;2023-06-10T05:44:59;9.60;;;6.00;;
33287;SDS011;19657;50.452;30.372;2023-06-10T05:47:45;18.40;;;6.70;;
33287;SDS011;19657;50.452;30.372;2023-06-10T05:50:31;11.60;;;6.60;;
33287;SDS011;19657;50.452;30.372;2023-06-10T05:53:23;8.90;;;6.30;;
33287;SDS011;19657;50.452;30.372;2023-06-10T05:56:09;11.10;;;6.20;;
33287;SDS011;19657;50.452;30.372;2023-06-10T05:58:55;8.20;;;6.00;;
33287;SDS011;19657;50.452;30.372;2023-06-10T06:01:41;9.30;;;5.90;;
33287;SDS011;19657;50.452;30.372;2023-06-10T06:04:27;10.90;;;6.70;;
33287;SDS011;19657;50.452;30.372;2023-06-10T06:07:14;10.90;;;6.30;;
33287;SDS011;19657;50.452;30.372;2023-06-10T06:10:00;11.00;;;6.10;;
33287;SDS011;19657;50.452;30.372;2023-06-10T06:12:46;9.10;;;6.10;;
33287;SDS011;19657;50.452;30.372;2023-06-10T06:15:32;10.00;;;6.00;;
33287;SDS011;19657;50.452;30.372;2023-06-10T06:18:18;11.60;;;6.10;;
33287;SDS011;19657;50.452;30.372;2023-06-10T06:21:04;11.90;;;5.60;;
33287;SDS011;19657;50.452;30.372;2023-06-10T06:23:50;8.60;;;5.60;;
33287;SDS011;19657;50.452;30.372;2023-06-10T06:26:36;7.70;;;5.30;;
33287;SDS011;19657;50.452;30.372;2023-06-10T06:29:22;8.00;;;5.20;;
33287;SDS011;19657;50.452;30.372;2023-06-10T06:32:08;11.10;;;5.10;;
33287;SDS011;19657;50.452;30.372;2023-06-10T06:34:54;7.60;;;4.30;;
33287;SDS011;19657;50.452;30.372;2023-06-10T06:37:40;7.60;;;4.20;;
33287;SDS011;19657;50.452;30.372;2023-06-10T06:40:36;7.00;;;4.30;;
33287;SDS011;19657;50.452;30.372;2023-06-10T06:43:22;10.70;;;4.70;;
33287;SDS011;19657;50.452;30.372;2023-06-10T06:46:34;8.40;;;4.30;;
33287;SDS011;19657;50.452;30.372;2023-06-10T06:49:20;7.10;;;3.90;;
33287;SDS011;19657;50.452;30.372;2023-06-10T06:52:06;6.70;;;4.40;;
33287;SDS011;19657;50.452;30.372;2023-06-10T06:54:53;7.60;;;3.80;;
33287;SDS011;19657;50.452;30.372;2023-06-10T07:00:21;6.20;;;3.70;;
33287;SDS011;19657;50.452;30.372;2023-06-10T07:03:08;5.40;;;4.10;;
33287;SDS011;19657;50.452;30.372;2023-06-10T07:05:54;5.80;;;3.60;;
33287;SDS011;19657;50.452;30.372;2023-06-10T07:08:40;5.40;;;3.60;;
33287;SDS011;19657;50.452;30.372;2023-06-10T07:11:27;5.00;;;3.50;;
33287;SDS011;19657;50.452;30.372;2023-06-10T07:14:14;7.30;;;3.50;;
33287;SDS011;19657;50.452;30.372;2023-06-10T07:17:00;5.60;;;3.50;;
33287;SDS011;19657;50.452;30.372;2023-06-10T07:19:47;7.40;;;3.50;;
33287;SDS011;19657;50.452;30.372;2023-06-10T07:22:33;6.20;;;4.00;;
33287;SDS011;19657;50.452;30.372;2023-06-10T07:25:19;8.20;;;4.30;;
33287;SDS011;19657;50.452;30.372;2023-06-10T07:28:05;10.10;;;4.90;;
33287;SDS011;19657;50.452;30.372;2023-06-10T07:30:52;8.00;;;5.30;;
33287;SDS011;19657;50.452;30.372;2023-06-10T07:33:38;9.80;;;5.20;;
33287;SDS011;19657;50.452;30.372;2023-06-10T07:36:29;9.30;;;5.40;;
33287;SDS011;19657;50.452;30.372;2023-06-10T07:39:15;9.90;;;5.50;;
33287;SDS011;19657;50.452;30.372;2023-06-10T07:42:01;9.50;;;4.80;;
33287;SDS011;19657;50.452;30.372;2023-06-10T07:44:48;9.70;;;5.00;;
33287;SDS011;19657;50.452;30.372;2023-06-10T07:47:34;11.00;;;4.70;;
33287;SDS011;19657;50.452;30.372;2023-06-10T07:50:21;8.40;;;4.50;;
33287;SDS011;19657;50.452;30.372;2023-06-10T07:53:07;9.50;;;4.90;;
33287;SDS011;19657;50.452;30.372;2023-06-10T07:55:54;9.60;;;4.50;;
33287;SDS011;19657;50.452;30.372;2023-06-10T07:58:40;8.70;;;4.10;;
33287;SDS011;19657;50.452;30.372;2023-06-10T08:01:26;8.20;;;4.00;;
33287;SDS011;19657;50.452;30.372;2023-06-10T08:04:12;6.80;;;4.00;;
33287;SDS011;19657;50.452;30.372;2023-06-10T08:06:59;8.00;;;3.60;;
33287;SDS011;19657;50.452;30.372;2023-06-10T08:09:45;8.10;;;4.40;;
33287;SDS011;19657;50.452;30.372;2023-06-10T08:12:32;5.60;;;3.50;;
33287;SDS011;19657;50.452;30.372;2023-06-10T08:15:19;7.90;;;3.50;;
33287;SDS011;19657;50.452;30.372;2023-06-10T08:18:05;6.00;;;3.20;;
33287;SDS011;19657;50.452;30.372;2023-06-10T08:20:51;8.90;;;3.60;;
33287;SDS011;19657;50.452;30.372;2023-06-10T08:23:37;6.40;;;3.60;;
33287;SDS011;19657;50.452;30.372;2023-06-10T08:26:23;5.10;;;3.40;;
33287;SDS011;19657;50.452;30.372;2023-06-10T08:29:11;9.60;;;3.20;;
33287;SDS011;19657;50.452;30.372;2023-06-10T08:31:58;4.90;;;3.30;;
33287;SDS011;19657;50.452;30.372;2023-06-10T08:34:45;8.60;;;3.50;;
33287;SDS011;19657;50.452;30.372;2023-06-10T08:37:31;5.80;;;3.90;;
33287;SDS011;19657;50.452;30.372;2023-06-10T08:40:17;7.30;;;3.80;;
33287;SDS011;19657;50.452;30.372;2023-06-10T08:45:53;6.20;;;3.70;;
33287;SDS011;19657;50.452;30.372;2023-06-10T08:48:45;6.50;;;3.90;;
33287;SDS011;19657;50.452;30.372;2023-06-10T08:51:35;9.30;;;3.70;;
33287;SDS011;19657;50.452;30.372;2023-06-10T08:54:24;5.90;;;3.70;;
33287;SDS011;19657;50.452;30.372;2023-06-10T08:57:13;8.40;;;4.10;;
33287;SDS011;19657;50.452;30.372;2023-06-10T09:00:01;8.00;;;4.10;;
33287;SDS011;19657;50.452;30.372;2023-06-10T09:02:49;5.40;;;3.80;;
33287;SDS011;19657;50.452;30.372;2023-06-10T09:05:37;7.30;;;3.80;;
33287;SDS011;19657;50.452;30.372;2023-06-10T09:08:24;8.80;;;3.90;;
33287;SDS011;19657;50.452;30.372;2023-06-10T09:11:11;6.10;;;3.70;;
33287;SDS011;19657;50.452;30.372;2023-06-10T09:13:57;8.40;;;3.80;;
33287;SDS011;19657;50.452;30.372;2023-06-10T09:16:44;10.20;;;4.30;;
33287;SDS011;19657;50.452;30.372;2023-06-10T09:19:32;5.50;;;3.50;;
33287;SDS011;19657;50.452;30.372;2023-06-10T09:22:19;7.70;;;4.10;;
33287;SDS011;19657;50.452;30.372;2023-06-10T09:25:06;6.30;;;4.10;;
33287;SDS011;19657;50.452;30.372;2023-06-10T09:27:55;6.30;;;4.50;;
33287;SDS011;19657;50.452;30.372;2023-06-10T09:30:42;8.20;;;4.30;;
33287;SDS011;19657;50.452;30.372;2023-06-10T09:33:28;6.50;;;4.50;;
33287;SDS011;19657;50.452;30.372;2023-06-10T09:36:21;6.20;;;4.20;;
33287;SDS011;19657;50.452;30.372;2023-06-10T09:39:15;8.80;;;4.90;;
33287;SDS011;19657;50.452;30.372;2023-06-10T09:42:16;6.40;;;4.50;;
33287;SDS011;19657;50.452;30.372;2023-06-10T09:45:05;10.30;;;4.40;;
33287;SDS011;19657;50.452;30.372;2023-06-10T09:47:53;8.40;;;4.80;;
33287;SDS011;19657;50.452;30.372;2023-06-10T09:50:43;8.60;;;4.60;;
33287;SDS011;19657;50.452;30.372;2023-06-10T09:53:33;7.70;;;4.60;;
33287;SDS011;19657;50.452;30.372;2023-06-10T09:56:20;6.90;;;4.20;;
33287;SDS011;19657;50.452;30.372;2023-06-10T09:59:06;7.90;;;4.80;;
33287;SDS011;19657;50.452;30.372;2023-06-10T10:01:56;7.90;;;4.40;;
33287;SDS011;19657;50.452;30.372;2023-06-10T10:04:43;7.20;;;4.80;;
33287;SDS011;19657;50.452;30.372;2023-06-10T10:07:30;9.40;;;5.50;;
33287;SDS011;19657;50.452;30.372;2023-06-10T10:10:17;9.80;;;4.90;;
33287;SDS011;19657;50.452;30.372;2023-06-10T10:13:05;6.00;;;4.20;;
33287;SDS011;19657;50.452;30.372;2023-06-10T10:15:52;7.40;;;4.60;;
33287;SDS011;19657;50.452;30.372;2023-06-10T10:19:04;8.60;;;4.20;;
33287;SDS011;19657;50.452;30.372;2023-06-10T10:21:56;9.10;;;4.60;;
33287;SDS011;19657;50.452;30.372;2023-06-10T10:24:50;8.80;;;4.70;;
33287;SDS011;19657;50.452;30.372;2023-06-10T10:28:24;9.50;;;4.50;;
33287;SDS011;19657;50.452;30.372;2023-06-10T10:30:56;9.00;;;4.70;;
33287;SDS011;19657;50.452;30.372;2023-06-10T10:33:50;9.80;;;4.50;;
33287;SDS011;19657;50.452;30.372;2023-06-10T10:36:43;7.90;;;4.20;;
33287;SDS011;19657;50.452;30.372;2023-06-10T10:39:33;13.00;;;4.50;;
33287;SDS011;19657;50.452;30.372;2023-06-10T10:42:21;9.40;;;3.90;;
33287;SDS011;19657;50.452;30.372;2023-06-10T10:45:10;9.90;;;4.10;;
33287;SDS011;19657;50.452;30.372;2023-06-10T10:47:57;6.70;;;4.60;;
33287;SDS011;19657;50.452;30.372;2023-06-10T10:50:44;7.10;;;4.20;;
33287;SDS011;19657;50.452;30.372;2023-06-10T10:53:43;7.60;;;4.10;;
33287;SDS011;19657;50.452;30.372;2023-06-10T10:56:31;9.80;;;4.10;;
33287;SDS011;19657;50.452;30.372;2023-06-10T10:59:17;9.70;;;3.90;;
33287;SDS011;19657;50.452;30.372;2023-06-10T11:02:05;8.70;;;4.30;;
33287;SDS011;19657;50.452;30.372;2023-06-10T11:04:52;9.10;;;4.20;;
33287;SDS011;19657;50.452;30.372;2023-06-10T11:07:51;5.70;;;4.10;;
33287;SDS011;19657;50.452;30.372;2023-06-10T11:10:51;6.00;;;3.80;;
33287;SDS011;19657;50.452;30.372;2023-06-10T11:13:41;8.30;;;4.30;;
33287;SDS011;19657;50.452;30.372;2023-06-10T11:16:45;7.90;;;4.50;;
33287;SDS011;19657;50.452;30.372;2023-06-10T11:19:37;7.50;;;4.40;;
33287;SDS011;19657;50.452;30.372;2023-06-10T11:22:26;9.10;;;4.80;;
33287;SDS011;19657;50.452;30.372;2023-06-10T11:25:13;7.90;;;4.00;;
33287;SDS011;19657;50.452;30.372;2023-06-10T11:28:01;9.30;;;4.10;;
33287;SDS011;19657;50.452;30.372;2023-06-10T11:30:47;7.00;;;3.90;;
33287;SDS011;19657;50.452;30.372;2023-06-10T11:33:43;7.40;;;4.00;;
33287;SDS011;19657;50.452;30.372;2023-06-10T11:36:29;7.80;;;4.80;;
33287;SDS011;19657;50.452;30.372;2023-06-10T11:39:16;6.20;;;4.00;;
33287;SDS011;19657;50.452;30.372;2023-06-10T11:42:03;6.80;;;4.70;;
33287;SDS011;19657;50.452;30.372;2023-06-10T11:44:53;9.50;;;4.50;;
33287;SDS011;19657;50.452;30.372;2023-06-10T11:47:40;12.00;;;4.40;;
33287;SDS011;19657;50.452;30.372;2023-06-10T11:50:32;11.50;;;4.20;;
33287;SDS011;19657;50.452;30.372;2023-06-10T11:53:19;6.60;;;4.30;;
33287;SDS011;19657;50.452;30.372;2023-06-10T11:56:05;7.00;;;4.40;;
33287;SDS011;19657;50.452;30.372;2023-06-10T11:58:52;9.10;;;4.40;;
33287;SDS011;19657;50.452;30.372;2023-06-10T12:01:43;5.70;;;4.20;;
33287;SDS011;19657;50.452;30.372;2023-06-10T12:04:30;6.70;;;4.10;;
33287;SDS011;19657;50.452;30.372;2023-06-10T12:07:17;8.70;;;4.50;;
33287;SDS011;19657;50.452;30.372;2023-06-10T12:10:05;10.30;;;4.50;;
33287;SDS011;19657;50.452;30.372;2023-06-10T12:13:11;7.70;;;5.00;;
33287;SDS011;19657;50.452;30.372;2023-06-10T12:16:07;7.20;;;4.50;;
33287;SDS011;19657;50.452;30.372;2023-06-10T12:19:00;9.20;;;5.00;;
33287;SDS011;19657;50.452;30.372;2023-06-10T12:21:48;9.50;;;4.80;;
33287;SDS011;19657;50.452;30.372;2023-06-10T12:24:34;7.80;;;4.50;;
33287;SDS011;19657;50.452;30.372;2023-06-10T12:27:30;8.90;;;5.00;;
33287;SDS011;19657;50.452;30.372;2023-06-10T12:30:21;10.70;;;5.50;;
33287;SDS011;19657;50.452;30.372;2023-06-10T12:33:15;11.30;;;5.20;;
33287;SDS011;19657;50.452;30.372;2023-06-10T12:36:09;12.80;;;5.10;;
33287;SDS011;19657;50.452;30.372;2023-06-10T12:39:02;10.80;;;5.80;;
33287;SDS011;19657;50.452;30.372;2023-06-10T12:41:51;10.50;;;5.30;;
33287;SDS011;19657;50.452;30.372;2023-06-10T12:44:38;10.40;;;5.70;;
33287;SDS011;19657;50.452;30.372;2023-06-10T12:47:30;8.00;;;6.10;;
33287;SDS011;19657;50.452;30.372;2023-06-10T12:53:04;10.00;;;5.20;;
33287;SDS011;19657;50.452;30.372;2023-06-10T12:55:51;7.40;;;5.10;;
33287;SDS011;19657;50.452;30.372;2023-06-10T12:58:37;11.10;;;6.10;;
33287;SDS011;19657;50.452;30.372;2023-06-10T13:01:23;11.80;;;6.10;;
33287;SDS011;19657;50.452;30.372;2023-06-10T13:04:10;7.20;;;5.40;;
33287;SDS011;19657;50.452;30.372;2023-06-10T13:06:57;11.60;;;4.90;;
33287;SDS011;19657;50.452;30.372;2023-06-10T13:09:44;8.30;;;5.00;;
33287;SDS011;19657;50.452;30.372;2023-06-10T13:12:34;7.60;;;5.30;;
33287;SDS011;19657;50.452;30.372;2023-06-10T13:15:32;9.10;;;5.00;;
33287;SDS011;19657;50.452;30.372;2023-06-10T13:18:27;15.20;;;4.60;;
33287;SDS011;19657;50.452;30.372;2023-06-10T13:21:13;19.90;;;5.20;;
33287;SDS011;19657;50.452;30.372;2023-06-10T13:23:59;11.00;;;4.60;;
33287;SDS011;19657;50.452;30.372;2023-06-10T13:26:45;6.90;;;3.80;;
33287;SDS011;19657;50.452;30.372;2023-06-10T13:29:32;9.70;;;4.00;;
33287;SDS011;19657;50.452;30.372;2023-06-10T13:32:18;11.20;;;3.90;;
33287;SDS011;19657;50.452;30.372;2023-06-10T13:35:05;7.40;;;4.00;;
33287;SDS011;19657;50.452;30.372;2023-06-10T13:37:53;6.30;;;3.50;;
33287;SDS011;19657;50.452;30.372;2023-06-10T13:40:39;7.00;;;3.30;;
33287;SDS011;19657;50.452;30.372;2023-06-10T13:43:25;6.70;;;3.00;;
33287;SDS011;19657;50.452;30.372;2023-06-10T13:46:11;5.80;;;2.90;;
33287;SDS011;19657;50.452;30.372;2023-06-10T13:48:57;7.00;;;3.90;;
33287;SDS011;19657;50.452;30.372;2023-06-10T13:51:43;9.60;;;4.30;;
33287;SDS011;19657;50.452;30.372;2023-06-10T13:54:29;10.80;;;4.30;;
33287;SDS011;19657;50.452;30.372;2023-06-10T13:57:16;7.50;;;4.40;;
33287;SDS011;19657;50.452;30.372;2023-06-10T14:00:02;12.40;;;5.10;;
33287;SDS011;19657;50.452;30.372;2023-06-10T14:02:49;11.40;;;4.90;;
33287;SDS011;19657;50.452;30.372;2023-06-10T14:05:35;9.40;;;4.50;;
33287;SDS011;19657;50.452;30.372;2023-06-10T14:08:21;12.40;;;4.50;;
33287;SDS011;19657;50.452;30.372;2023-06-10T14:11:08;8.60;;;5.10;;
33287;SDS011;19657;50.452;30.372;2023-06-10T14:13:54;13.80;;;5.40;;
33287;SDS011;19657;50.452;30.372;2023-06-10T14:16:42;9.50;;;5.30;;
33287;SDS011;19657;50.452;30.372;2023-06-10T14:19:28;7.80;;;4.80;;
33287;SDS011;19657;50.452;30.372;2023-06-10T14:22:15;8.20;;;5.00;;
33287;SDS011;19657;50.452;30.372;2023-06-10T14:25:00;8.80;;;4.60;;
33287;SDS011;19657;50.452;30.372;2023-06-10T14:27:47;9.70;;;4.90;;
33287;SDS011;19657;50.452;30.372;2023-06-10T14:30:32;8.20;;;4.60;;
33287;SDS011;19657;50.452;30.372;2023-06-10T14:33:18;9.00;;;4.50;;
33287;SDS011;19657;50.452;30.372;2023-06-10T14:36:05;7.50;;;4.50;;
33287;SDS011;19657;50.452;30.372;2023-06-10T14:38:51;8.90;;;5.40;;
33287;SDS011;19657;50.452;30.372;2023-06-10T14:41:37;7.80;;;4.80;;
33287;SDS011;19657;50.452;30.372;2023-06-10T14:44:23;11.50;;;5.00;;
33287;SDS011;19657;50.452;30.372;2023-06-10T14:47:09;8.30;;;4.60;;
33287;SDS011;19657;50.452;30.372;2023-06-10T14:49:55;7.30;;;4.30;;
33287;SDS011;19657;50.452;30.372;2023-06-10T14:52:41;7.30;;;4.40;;
33287;SDS011;19657;50.452;30.372;2023-06-10T14:55:27;8.60;;;5.10;;
33287;SDS011;19657;50.452;30.372;2023-06-10T14:58:13;9.30;;;5.20;;
33287;SDS011;19657;50.452;30.372;2023-06-10T15:00:59;9.50;;;5.20;;
33287;SDS011;19657;50.452;30.372;2023-06-10T15:03:45;9.20;;;4.70;;
33287;SDS011;19657;50.452;30.372;2023-06-10T15:06:31;8.10;;;4.30;;
33287;SDS011;19657;50.452;30.372;2023-06-10T15:09:17;9.60;;;4.40;;
33287;SDS011;19657;50.452;30.372;2023-06-10T15:12:03;9.30;;;5.30;;
33287;SDS011;19657;50.452;30.372;2023-06-10T15:14:49;7.40;;;5.00;;
33287;SDS011;19657;50.452;30.372;2023-06-10T15:17:35;7.30;;;4.40;;
33287;SDS011;19657;50.452;30.372;2023-06-10T15:20:22;7.80;;;4.70;;
33287;SDS011;19657;50.452;30.372;2023-06-10T15:23:08;6.70;;;4.50;;
33287;SDS011;19657;50.452;30.372;2023-06-10T15:25:54;7.40;;;4.30;;
33287;SDS011;19657;50.452;30.372;2023-06-10T15:28:40;5.90;;;4.00;;
33287;SDS011;19657;50.452;30.372;2023-06-10T15:31:26;8.20;;;3.50;;
33287;SDS011;19657;50.452;30.372;2023-06-10T15:34:12;7.90;;;3.50;;
33287;SDS011;19657;50.452;30.372;2023-06-10T15:36:58;8.10;;;3.90;;
33287;SDS011;19657;50.452;30.372;2023-06-10T15:39:45;6.60;;;3.90;;
33287;SDS011;19657;50.452;30.372;2023-06-10T15:42:31;9.40;;;4.10;;
33287;SDS011;19657;50.452;30.372;2023-06-10T15:45:17;8.20;;;3.70;;
33287;SDS011;19657;50.452;30.372;2023-06-10T15:48:03;7.50;;;4.80;;
33287;SDS011;19657;50.452;30.372;2023-06-10T15:50:50;7.30;;;4.20;;
33287;SDS011;19657;50.452;30.372;2023-06-10T15:53:36;9.70;;;4.40;;
33287;SDS011;19657;50.452;30.372;2023-06-10T15:56:22;8.10;;;3.60;;
33287;SDS011;19657;50.452;30.372;2023-06-10T15:59:08;7.90;;;4.30;;
33287;SDS011;19657;50.452;30.372;2023-06-10T16:01:56;6.50;;;4.10;;
33287;SDS011;19657;50.452;30.372;2023-06-10T16:04:42;5.80;;;4.10;;
33287;SDS011;19657;50.452;30.372;2023-06-10T16:07:28;6.10;;;3.60;;
33287;SDS011;19657;50.452;30.372;2023-06-10T16:10:14;6.60;;;3.80;;
33287;SDS011;19657;50.452;30.372;2023-06-10T16:13:00;6.80;;;3.70;;
33287;SDS011;19657;50.452;30.372;2023-06-10T16:15:50;5.60;;;3.50;;
33287;SDS011;19657;50.452;30.372;2023-06-10T16:18:36;7.60;;;4.20;;
33287;SDS011;19657;50.452;30.372;2023-06-10T16:21:22;7.40;;;4.20;;
33287;SDS011;19657;50.452;30.372;2023-06-10T16:24:08;7.40;;;4.90;;
33287;SDS011;19657;50.452;30.372;2023-06-10T16:26:54;10.40;;;4.80;;
33287;SDS011;19657;50.452;30.372;2023-06-10T16:29:40;7.80;;;4.10;;
33287;SDS011;19657;50.452;30.372;2023-06-10T16:32:26;9.40;;;4.70;;
33287;SDS011;19657;50.452;30.372;2023-06-10T16:35:13;7.70;;;4.10;;
33287;SDS011;19657;50.452;30.372;2023-06-10T16:37:59;8.90;;;4.70;;
33287;SDS011;19657;50.452;30.372;2023-06-10T16:40:48;7.80;;;4.40;;